sensor_id;sensor_type;location;lat;lon;timestamp;temperature;humidity
48328;DHT22;34136;51.022;7.082;2023-05-07T00:00:29;15.80;1.00
48328;DHT22;34136;51.022;7.082;2023-05-07T00:03:16;15.70;1.00
48328;DHT22;34136;51.022;7.082;2023-05-07T00:06:02;15.80;1.00
48328;DHT22;34136;51.022;7.082;2023-05-07T00:08:48;15.70;1.00
48328;DHT22;34136;51.022;7.082;2023-05-07T00:11:34;15.70;1.00
48328;DHT22;34136;51.022;7.082;2023-05-07T00:14:20;15.70;1.00
48328;DHT22;34136;51.022;7.082;2023-05-07T00:17:07;15.70;1.00
48328;DHT22;34136;51.022;7.082;2023-05-07T00:19:53;15.60;1.00
48328;DHT22;34136;51.022;7.082;2023-05-07T00:22:39;15.50;1.00
48328;DHT22;34136;51.022;7.082;2023-05-07T00:25:25;15.40;1.00
48328;DHT22;34136;51.022;7.082;2023-05-07T00:28:12;15.50;1.00
48328;DHT22;34136;51.022;7.082;2023-05-07T00:30:58;15.40;1.00
48328;DHT22;34136;51.022;7.082;2023-05-07T00:33:45;15.50;1.00
48328;DHT22;34136;51.022;7.082;2023-05-07T00:36:31;15.50;1.00
48328;DHT22;34136;51.022;7.082;2023-05-07T00:39:17;15.50;1.00
48328;DHT22;34136;51.022;7.082;2023-05-07T00:42:04;15.50;1.00
48328;DHT22;34136;51.022;7.082;2023-05-07T00:44:50;15.50;1.00
48328;DHT22;34136;51.022;7.082;2023-05-07T00:47:36;15.50;1.00
48328;DHT22;34136;51.022;7.082;2023-05-07T00:50:22;15.50;1.00
48328;DHT22;34136;51.022;7.082;2023-05-07T00:53:09;15.40;1.00
48328;DHT22;34136;51.022;7.082;2023-05-07T00:55:55;15.40;1.00
48328;DHT22;34136;51.022;7.082;2023-05-07T00:58:42;15.40;1.00
48328;DHT22;34136;51.022;7.082;2023-05-07T01:01:28;15.40;1.00
48328;DHT22;34136;51.022;7.082;2023-05-07T01:04:15;15.40;1.00
48328;DHT22;34136;51.022;7.082;2023-05-07T01:07:01;15.30;1.00
48328;DHT22;34136;51.022;7.082;2023-05-07T01:09:48;15.30;1.00
48328;DHT22;34136;51.022;7.082;2023-05-07T01:12:36;15.20;1.00
48328;DHT22;34136;51.022;7.082;2023-05-07T01:15:23;15.20;1.00
48328;DHT22;34136;51.022;7.082;2023-05-07T01:18:10;15.10;1.00
48328;DHT22;34136;51.022;7.082;2023-05-07T01:20:58;15.10;1.00
48328;DHT22;34136;51.022;7.082;2023-05-07T01:23:45;15.00;1.00
48328;DHT22;34136;51.022;7.082;2023-05-07T01:26:33;15.00;1.00
48328;DHT22;34136;51.022;7.082;2023-05-07T01:29:19;15.00;1.00
48328;DHT22;34136;51.022;7.082;2023-05-07T01:32:07;15.00;1.00
48328;DHT22;34136;51.022;7.082;2023-05-07T01:34:54;15.00;1.00
48328;DHT22;34136;51.022;7.082;2023-05-07T01:37:41;14.90;1.00
48328;DHT22;34136;51.022;7.082;2023-05-07T01:40:28;14.90;1.00
48328;DHT22;34136;51.022;7.082;2023-05-07T01:43:14;15.00;1.00
48328;DHT22;34136;51.022;7.082;2023-05-07T01:46:02;14.90;1.00
48328;DHT22;34136;51.022;7.082;2023-05-07T01:48:49;14.80;1.00
48328;DHT22;34136;51.022;7.082;2023-05-07T01:51:36;14.90;1.00
48328;DHT22;34136;51.022;7.082;2023-05-07T01:54:26;14.90;1.00
48328;DHT22;34136;51.022;7.082;2023-05-07T01:57:12;15.00;1.00
48328;DHT22;34136;51.022;7.082;2023-05-07T01:59:58;15.00;1.00
48328;DHT22;34136;51.022;7.082;2023-05-07T02:02:45;15.10;1.00
48328;DHT22;34136;51.022;7.082;2023-05-07T02:05:43;15.10;1.00
48328;DHT22;34136;51.022;7.082;2023-05-07T02:08:43;15.10;1.00
48328;DHT22;34136;51.022;7.082;2023-05-07T02:11:31;15.10;1.00
48328;DHT22;34136;51.022;7.082;2023-05-07T02:14:17;15.10;1.00
48328;DHT22;34136;51.022;7.082;2023-05-07T02:17:03;15.20;1.00
48328;DHT22;34136;51.022;7.082;2023-05-07T02:19:50;15.10;1.00
48328;DHT22;34136;51.022;7.082;2023-05-07T02:22:36;15.10;1.00
48328;DHT22;34136;51.022;7.082;2023-05-07T02:25:23;15.20;1.00
48328;DHT22;34136;51.022;7.082;2023-05-07T02:28:10;15.10;1.00
48328;DHT22;34136;51.022;7.082;2023-05-07T02:31:16;15.10;1.00
48328;DHT22;34136;51.022;7.082;2023-05-07T02:34:03;15.10;1.00
48328;DHT22;34136;51.022;7.082;2023-05-07T02:36:50;15.10;1.00
48328;DHT22;34136;51.022;7.082;2023-05-07T02:39:40;15.00;1.00
48328;DHT22;34136;51.022;7.082;2023-05-07T02:42:27;14.70;1.00
48328;DHT22;34136;51.022;7.082;2023-05-07T02:45:13;14.70;1.00
48328;DHT22;34136;51.022;7.082;2023-05-07T02:47:59;14.80;1.00
48328;DHT22;34136;51.022;7.082;2023-05-07T02:50:46;14.80;1.00
48328;DHT22;34136;51.022;7.082;2023-05-07T02:53:34;14.80;1.00
48328;DHT22;34136;51.022;7.082;2023-05-07T02:56:20;14.80;1.00
48328;DHT22;34136;51.022;7.082;2023-05-07T02:59:06;14.80;1.00
48328;DHT22;34136;51.022;7.082;2023-05-07T03:01:57;14.70;1.00
48328;DHT22;34136;51.022;7.082;2023-05-07T03:04:44;14.70;1.00
48328;DHT22;34136;51.022;7.082;2023-05-07T03:07:31;14.70;1.00
48328;DHT22;34136;51.022;7.082;2023-05-07T03:10:17;14.70;1.00
48328;DHT22;34136;51.022;7.082;2023-05-07T03:13:04;14.60;1.00
48328;DHT22;34136;51.022;7.082;2023-05-07T03:15:51;14.60;1.00
48328;DHT22;34136;51.022;7.082;2023-05-07T03:18:37;14.60;1.00
48328;DHT22;34136;51.022;7.082;2023-05-07T03:21:24;14.60;1.00
48328;DHT22;34136;51.022;7.082;2023-05-07T03:24:10;14.50;1.00
48328;DHT22;34136;51.022;7.082;2023-05-07T03:26:56;14.40;1.00
48328;DHT22;34136;51.022;7.082;2023-05-07T03:29:42;14.40;1.00
48328;DHT22;34136;51.022;7.082;2023-05-07T03:32:29;14.40;1.00
48328;DHT22;34136;51.022;7.082;2023-05-07T03:35:15;14.40;1.00
48328;DHT22;34136;51.022;7.082;2023-05-07T03:38:02;14.40;1.00
48328;DHT22;34136;51.022;7.082;2023-05-07T03:40:52;14.30;1.00
48328;DHT22;34136;51.022;7.082;2023-05-07T03:43:38;14.30;1.00
48328;DHT22;34136;51.022;7.082;2023-05-07T03:46:28;14.20;1.00
48328;DHT22;34136;51.022;7.082;2023-05-07T03:49:15;14.30;1.00
48328;DHT22;34136;51.022;7.082;2023-05-07T03:52:02;14.20;1.00
48328;DHT22;34136;51.022;7.082;2023-05-07T03:54:50;14.10;1.00
48328;DHT22;34136;51.022;7.082;2023-05-07T03:57:36;14.00;1.00
48328;DHT22;34136;51.022;7.082;2023-05-07T04:00:24;13.90;1.00
48328;DHT22;34136;51.022;7.082;2023-05-07T04:03:10;13.90;1.00
48328;DHT22;34136;51.022;7.082;2023-05-07T04:05:56;14.00;1.00
48328;DHT22;34136;51.022;7.082;2023-05-07T04:08:43;13.90;1.00
48328;DHT22;34136;51.022;7.082;2023-05-07T04:11:30;13.90;1.00
48328;DHT22;34136;51.022;7.082;2023-05-07T04:14:17;13.80;1.00
48328;DHT22;34136;51.022;7.082;2023-05-07T04:17:04;13.80;1.00
48328;DHT22;34136;51.022;7.082;2023-05-07T04:19:50;13.90;1.00
48328;DHT22;34136;51.022;7.082;2023-05-07T04:22:38;13.90;1.00
48328;DHT22;34136;51.022;7.082;2023-05-07T04:25:24;14.00;1.00
48328;DHT22;34136;51.022;7.082;2023-05-07T04:28:11;14.00;1.00
48328;DHT22;34136;51.022;7.082;2023-05-07T04:30:59;14.00;1.00
48328;DHT22;34136;51.022;7.082;2023-05-07T04:33:46;13.80;1.00
48328;DHT22;34136;51.022;7.082;2023-05-07T04:36:34;13.80;1.00
48328;DHT22;34136;51.022;7.082;2023-05-07T04:39:24;13.70;1.00
48328;DHT22;34136;51.022;7.082;2023-05-07T04:42:15;13.80;1.00
48328;DHT22;34136;51.022;7.082;2023-05-07T04:45:02;13.80;1.00
48328;DHT22;34136;51.022;7.082;2023-05-07T04:47:52;13.90;1.00
48328;DHT22;34136;51.022;7.082;2023-05-07T04:50:38;13.90;1.00
48328;DHT22;34136;51.022;7.082;2023-05-07T04:53:26;13.80;1.00
48328;DHT22;34136;51.022;7.082;2023-05-07T04:56:13;13.70;1.00
48328;DHT22;34136;51.022;7.082;2023-05-07T04:59:02;13.70;1.00
48328;DHT22;34136;51.022;7.082;2023-05-07T05:01:50;13.70;1.00
48328;DHT22;34136;51.022;7.082;2023-05-07T05:04:37;13.80;1.00
48328;DHT22;34136;51.022;7.082;2023-05-07T05:07:25;13.90;1.00
48328;DHT22;34136;51.022;7.082;2023-05-07T05:10:11;14.00;1.00
48328;DHT22;34136;51.022;7.082;2023-05-07T05:12:59;14.00;1.00
48328;DHT22;34136;51.022;7.082;2023-05-07T05:15:47;14.00;1.00
48328;DHT22;34136;51.022;7.082;2023-05-07T05:18:33;14.10;1.00
48328;DHT22;34136;51.022;7.082;2023-05-07T05:21:20;14.20;1.00
48328;DHT22;34136;51.022;7.082;2023-05-07T05:24:10;14.30;1.00
48328;DHT22;34136;51.022;7.082;2023-05-07T05:26:58;14.40;1.00
48328;DHT22;34136;51.022;7.082;2023-05-07T05:29:44;14.40;1.00
48328;DHT22;34136;51.022;7.082;2023-05-07T05:32:31;14.40;1.00
48328;DHT22;34136;51.022;7.082;2023-05-07T05:35:17;14.50;1.00
48328;DHT22;34136;51.022;7.082;2023-05-07T05:38:04;14.60;1.00
48328;DHT22;34136;51.022;7.082;2023-05-07T05:40:50;14.60;1.00
48328;DHT22;34136;51.022;7.082;2023-05-07T05:43:38;14.60;1.00
48328;DHT22;34136;51.022;7.082;2023-05-07T05:46:25;14.60;1.00
48328;DHT22;34136;51.022;7.082;2023-05-07T05:49:12;14.70;1.00
48328;DHT22;34136;51.022;7.082;2023-05-07T05:51:59;14.80;1.00
48328;DHT22;34136;51.022;7.082;2023-05-07T05:54:47;14.80;1.00
48328;DHT22;34136;51.022;7.082;2023-05-07T05:57:33;14.90;1.00
48328;DHT22;34136;51.022;7.082;2023-05-07T06:00:20;15.00;1.00
48328;DHT22;34136;51.022;7.082;2023-05-07T06:03:07;15.00;1.00
48328;DHT22;34136;51.022;7.082;2023-05-07T06:05:54;15.10;1.00
48328;DHT22;34136;51.022;7.082;2023-05-07T06:08:42;15.00;1.00
48328;DHT22;34136;51.022;7.082;2023-05-07T06:11:31;15.10;1.00
48328;DHT22;34136;51.022;7.082;2023-05-07T06:14:18;15.10;1.00
48328;DHT22;34136;51.022;7.082;2023-05-07T06:17:05;15.20;1.00
48328;DHT22;34136;51.022;7.082;2023-05-07T06:19:52;15.20;1.00
48328;DHT22;34136;51.022;7.082;2023-05-07T06:22:40;15.40;1.00
48328;DHT22;34136;51.022;7.082;2023-05-07T06:25:27;15.40;1.00
48328;DHT22;34136;51.022;7.082;2023-05-07T06:28:14;15.50;1.00
48328;DHT22;34136;51.022;7.082;2023-05-07T06:31:19;15.60;1.00
48328;DHT22;34136;51.022;7.082;2023-05-07T06:34:11;15.80;1.00
48328;DHT22;34136;51.022;7.082;2023-05-07T06:36:58;15.90;1.00
48328;DHT22;34136;51.022;7.082;2023-05-07T06:39:54;15.90;1.00
48328;DHT22;34136;51.022;7.082;2023-05-07T06:42:42;16.00;1.00
48328;DHT22;34136;51.022;7.082;2023-05-07T06:45:54;16.00;1.00
48328;DHT22;34136;51.022;7.082;2023-05-07T06:48:41;16.20;1.00
48328;DHT22;34136;51.022;7.082;2023-05-07T06:51:28;16.30;1.00
48328;DHT22;34136;51.022;7.082;2023-05-07T06:54:15;16.40;1.00
48328;DHT22;34136;51.022;7.082;2023-05-07T06:57:03;16.50;1.00
48328;DHT22;34136;51.022;7.082;2023-05-07T06:59:51;16.70;1.00
48328;DHT22;34136;51.022;7.082;2023-05-07T07:02:38;16.90;1.00
48328;DHT22;34136;51.022;7.082;2023-05-07T07:05:25;17.10;1.00
48328;DHT22;34136;51.022;7.082;2023-05-07T07:08:12;17.40;1.00
48328;DHT22;34136;51.022;7.082;2023-05-07T07:10:58;17.60;1.00
48328;DHT22;34136;51.022;7.082;2023-05-07T07:13:45;17.70;1.00
48328;DHT22;34136;51.022;7.082;2023-05-07T07:16:32;17.80;1.00
48328;DHT22;34136;51.022;7.082;2023-05-07T07:19:18;17.80;1.00
48328;DHT22;34136;51.022;7.082;2023-05-07T07:22:07;18.00;1.00
48328;DHT22;34136;51.022;7.082;2023-05-07T07:24:53;18.20;1.00
48328;DHT22;34136;51.022;7.082;2023-05-07T07:27:40;18.40;1.00
48328;DHT22;34136;51.022;7.082;2023-05-07T07:30:27;18.60;1.00
48328;DHT22;34136;51.022;7.082;2023-05-07T07:33:14;18.90;1.00
48328;DHT22;34136;51.022;7.082;2023-05-07T07:36:01;19.10;1.00
48328;DHT22;34136;51.022;7.082;2023-05-07T07:38:47;19.40;1.00
48328;DHT22;34136;51.022;7.082;2023-05-07T07:41:34;19.60;1.00
48328;DHT22;34136;51.022;7.082;2023-05-07T07:44:21;19.80;1.00
48328;DHT22;34136;51.022;7.082;2023-05-07T07:47:12;19.80;1.00
48328;DHT22;34136;51.022;7.082;2023-05-07T07:49:59;19.80;1.00
48328;DHT22;34136;51.022;7.082;2023-05-07T07:52:45;19.80;1.00
48328;DHT22;34136;51.022;7.082;2023-05-07T07:55:38;20.00;1.00
48328;DHT22;34136;51.022;7.082;2023-05-07T07:58:25;20.10;1.00
48328;DHT22;34136;51.022;7.082;2023-05-07T08:01:12;20.30;1.00
48328;DHT22;34136;51.022;7.082;2023-05-07T08:03:58;20.40;1.00
48328;DHT22;34136;51.022;7.082;2023-05-07T08:06:46;20.60;1.00
48328;DHT22;34136;51.022;7.082;2023-05-07T08:09:32;20.60;1.00
48328;DHT22;34136;51.022;7.082;2023-05-07T08:12:20;20.70;1.00
48328;DHT22;34136;51.022;7.082;2023-05-07T08:15:07;20.70;1.00
48328;DHT22;34136;51.022;7.082;2023-05-07T08:17:53;20.80;1.00
48328;DHT22;34136;51.022;7.082;2023-05-07T08:20:40;21.00;1.00
48328;DHT22;34136;51.022;7.082;2023-05-07T08:23:28;21.00;1.00
48328;DHT22;34136;51.022;7.082;2023-05-07T08:26:15;20.90;1.00
48328;DHT22;34136;51.022;7.082;2023-05-07T08:29:02;21.00;1.00
48328;DHT22;34136;51.022;7.082;2023-05-07T08:31:48;21.00;1.00
48328;DHT22;34136;51.022;7.082;2023-05-07T08:34:34;21.10;1.00
48328;DHT22;34136;51.022;7.082;2023-05-07T08:37:23;21.40;1.00
48328;DHT22;34136;51.022;7.082;2023-05-07T08:40:10;21.50;1.00
48328;DHT22;34136;51.022;7.082;2023-05-07T08:42:57;21.60;1.00
48328;DHT22;34136;51.022;7.082;2023-05-07T08:45:46;21.70;1.00
48328;DHT22;34136;51.022;7.082;2023-05-07T08:48:36;21.90;1.00
48328;DHT22;34136;51.022;7.082;2023-05-07T08:51:31;22.00;1.00
48328;DHT22;34136;51.022;7.082;2023-05-07T08:54:18;22.20;1.00
48328;DHT22;34136;51.022;7.082;2023-05-07T08:57:04;22.30;1.00
48328;DHT22;34136;51.022;7.082;2023-05-07T08:59:53;22.40;1.00
48328;DHT22;34136;51.022;7.082;2023-05-07T09:02:39;22.40;1.00
48328;DHT22;34136;51.022;7.082;2023-05-07T09:05:27;22.20;1.00
48328;DHT22;34136;51.022;7.082;2023-05-07T09:08:15;22.10;1.00
48328;DHT22;34136;51.022;7.082;2023-05-07T09:11:02;22.10;1.00
48328;DHT22;34136;51.022;7.082;2023-05-07T09:13:56;22.10;1.00
48328;DHT22;34136;51.022;7.082;2023-05-07T09:16:43;22.40;1.00
48328;DHT22;34136;51.022;7.082;2023-05-07T09:19:30;22.30;1.00
48328;DHT22;34136;51.022;7.082;2023-05-07T09:22:21;22.60;1.00
48328;DHT22;34136;51.022;7.082;2023-05-07T09:25:31;22.90;1.00
48328;DHT22;34136;51.022;7.082;2023-05-07T09:28:19;23.10;1.00
48328;DHT22;34136;51.022;7.082;2023-05-07T09:31:06;23.10;1.00
48328;DHT22;34136;51.022;7.082;2023-05-07T09:33:53;23.30;1.00
48328;DHT22;34136;51.022;7.082;2023-05-07T09:36:39;23.20;1.00
48328;DHT22;34136;51.022;7.082;2023-05-07T09:39:26;23.00;1.00
48328;DHT22;34136;51.022;7.082;2023-05-07T09:42:12;23.20;1.00
48328;DHT22;34136;51.022;7.082;2023-05-07T09:44:59;23.50;1.00
48328;DHT22;34136;51.022;7.082;2023-05-07T09:47:57;23.60;1.00
48328;DHT22;34136;51.022;7.082;2023-05-07T09:50:49;23.70;1.00
48328;DHT22;34136;51.022;7.082;2023-05-07T09:53:40;24.00;1.00
48328;DHT22;34136;51.022;7.082;2023-05-07T09:56:27;24.00;1.00
48328;DHT22;34136;51.022;7.082;2023-05-07T09:59:15;24.20;1.00
48328;DHT22;34136;51.022;7.082;2023-05-07T10:02:04;24.10;1.00
48328;DHT22;34136;51.022;7.082;2023-05-07T10:04:52;24.30;1.00
48328;DHT22;34136;51.022;7.082;2023-05-07T10:07:45;24.10;1.00
48328;DHT22;34136;51.022;7.082;2023-05-07T10:10:33;24.00;99.90
48328;DHT22;34136;51.022;7.082;2023-05-07T10:13:21;24.00;1.00
48328;DHT22;34136;51.022;7.082;2023-05-07T10:16:10;24.10;1.00
48328;DHT22;34136;51.022;7.082;2023-05-07T10:19:05;24.20;99.90
48328;DHT22;34136;51.022;7.082;2023-05-07T10:22:01;24.30;99.90
48328;DHT22;34136;51.022;7.082;2023-05-07T10:24:52;24.20;99.90
48328;DHT22;34136;51.022;7.082;2023-05-07T10:27:41;23.90;1.40
48328;DHT22;34136;51.022;7.082;2023-05-07T10:31:09;24.20;99.90
48328;DHT22;34136;51.022;7.082;2023-05-07T10:33:54;24.40;99.90
48328;DHT22;34136;51.022;7.082;2023-05-07T10:36:42;24.70;99.90
48328;DHT22;34136;51.022;7.082;2023-05-07T10:39:30;25.00;99.90
48328;DHT22;34136;51.022;7.082;2023-05-07T10:42:17;25.30;99.90
48328;DHT22;34136;51.022;7.082;2023-05-07T10:45:12;25.50;99.90
48328;DHT22;34136;51.022;7.082;2023-05-07T10:48:13;25.20;99.90
48328;DHT22;34136;51.022;7.082;2023-05-07T10:51:19;25.00;99.90
48328;DHT22;34136;51.022;7.082;2023-05-07T11:03:14;25.10;99.90
48328;DHT22;34136;51.022;7.082;2023-05-07T11:06:16;25.10;99.90
48328;DHT22;34136;51.022;7.082;2023-05-07T11:09:06;25.40;99.90
48328;DHT22;34136;51.022;7.082;2023-05-07T11:12:16;25.60;99.90
48328;DHT22;34136;51.022;7.082;2023-05-07T11:15:10;25.90;99.90
48328;DHT22;34136;51.022;7.082;2023-05-07T11:17:59;26.00;99.90
48328;DHT22;34136;51.022;7.082;2023-05-07T11:20:59;26.10;99.90
48328;DHT22;34136;51.022;7.082;2023-05-07T11:23:55;26.10;99.90
48328;DHT22;34136;51.022;7.082;2023-05-07T11:26:49;25.90;99.90
48328;DHT22;34136;51.022;7.082;2023-05-07T11:29:37;25.90;99.90
48328;DHT22;34136;51.022;7.082;2023-05-07T11:32:31;25.90;99.90
48328;DHT22;34136;51.022;7.082;2023-05-07T11:35:22;25.40;99.90
48328;DHT22;34136;51.022;7.082;2023-05-07T11:38:09;25.40;99.90
48328;DHT22;34136;51.022;7.082;2023-05-07T11:40:59;25.10;99.90
48328;DHT22;34136;51.022;7.082;2023-05-07T11:43:58;25.00;99.90
48328;DHT22;34136;51.022;7.082;2023-05-07T11:46:45;25.40;99.90
48328;DHT22;34136;51.022;7.082;2023-05-07T11:49:32;25.20;99.90
48328;DHT22;34136;51.022;7.082;2023-05-07T11:52:19;25.00;99.90
48328;DHT22;34136;51.022;7.082;2023-05-07T11:55:07;25.10;99.90
48328;DHT22;34136;51.022;7.082;2023-05-07T11:57:53;25.20;99.90
48328;DHT22;34136;51.022;7.082;2023-05-07T12:00:39;25.00;99.90
48328;DHT22;34136;51.022;7.082;2023-05-07T12:03:33;25.10;99.90
48328;DHT22;34136;51.022;7.082;2023-05-07T12:06:19;25.20;99.90
48328;DHT22;34136;51.022;7.082;2023-05-07T12:09:05;25.30;99.90
48328;DHT22;34136;51.022;7.082;2023-05-07T12:11:52;25.20;99.90
48328;DHT22;34136;51.022;7.082;2023-05-07T12:14:43;25.20;99.90
48328;DHT22;34136;51.022;7.082;2023-05-07T12:17:29;25.20;99.90
48328;DHT22;34136;51.022;7.082;2023-05-07T12:20:15;25.30;99.90
48328;DHT22;34136;51.022;7.082;2023-05-07T12:23:03;25.20;99.90
48328;DHT22;34136;51.022;7.082;2023-05-07T12:26:02;25.30;99.90
48328;DHT22;34136;51.022;7.082;2023-05-07T12:28:50;25.50;99.90
48328;DHT22;34136;51.022;7.082;2023-05-07T12:31:36;25.70;99.90
48328;DHT22;34136;51.022;7.082;2023-05-07T12:34:26;25.50;99.90
48328;DHT22;34136;51.022;7.082;2023-05-07T12:37:12;25.60;99.90
48328;DHT22;34136;51.022;7.082;2023-05-07T12:40:07;25.50;99.90
48328;DHT22;34136;51.022;7.082;2023-05-07T12:42:53;25.40;99.90
48328;DHT22;34136;51.022;7.082;2023-05-07T12:45:41;25.50;99.90
48328;DHT22;34136;51.022;7.082;2023-05-07T12:48:28;25.40;99.90
48328;DHT22;34136;51.022;7.082;2023-05-07T12:51:15;25.40;99.90
48328;DHT22;34136;51.022;7.082;2023-05-07T12:54:02;25.30;99.90
48328;DHT22;34136;51.022;7.082;2023-05-07T12:56:48;25.40;99.90
48328;DHT22;34136;51.022;7.082;2023-05-07T12:59:39;25.30;99.90
48328;DHT22;34136;51.022;7.082;2023-05-07T13:02:33;25.20;99.90
48328;DHT22;34136;51.022;7.082;2023-05-07T13:05:19;25.40;99.90
48328;DHT22;34136;51.022;7.082;2023-05-07T13:08:06;25.40;99.90
48328;DHT22;34136;51.022;7.082;2023-05-07T13:10:52;25.50;99.90
48328;DHT22;34136;51.022;7.082;2023-05-07T13:13:40;25.50;99.90
48328;DHT22;34136;51.022;7.082;2023-05-07T13:16:26;25.40;99.90
48328;DHT22;34136;51.022;7.082;2023-05-07T13:19:13;25.50;99.90
48328;DHT22;34136;51.022;7.082;2023-05-07T13:21:59;25.50;99.90
48328;DHT22;34136;51.022;7.082;2023-05-07T13:24:45;25.40;99.90
48328;DHT22;34136;51.022;7.082;2023-05-07T13:27:31;25.20;99.90
48328;DHT22;34136;51.022;7.082;2023-05-07T13:30:18;25.20;99.90
48328;DHT22;34136;51.022;7.082;2023-05-07T13:33:04;25.30;99.90
48328;DHT22;34136;51.022;7.082;2023-05-07T13:35:51;25.30;99.90
48328;DHT22;34136;51.022;7.082;2023-05-07T13:38:37;25.10;99.90
48328;DHT22;34136;51.022;7.082;2023-05-07T13:41:23;25.00;99.90
48328;DHT22;34136;51.022;7.082;2023-05-07T13:44:10;25.00;99.90
48328;DHT22;34136;51.022;7.082;2023-05-07T13:46:56;24.90;99.90
48328;DHT22;34136;51.022;7.082;2023-05-07T13:49:42;24.80;99.90
48328;DHT22;34136;51.022;7.082;2023-05-07T13:52:28;24.90;99.90
48328;DHT22;34136;51.022;7.082;2023-05-07T13:55:14;24.70;99.90
48328;DHT22;34136;51.022;7.082;2023-05-07T13:58:02;24.70;99.90
48328;DHT22;34136;51.022;7.082;2023-05-07T14:00:48;24.90;99.90
48328;DHT22;34136;51.022;7.082;2023-05-07T14:03:34;24.90;99.90
48328;DHT22;34136;51.022;7.082;2023-05-07T14:06:20;24.90;99.90
48328;DHT22;34136;51.022;7.082;2023-05-07T14:09:06;24.90;99.90
48328;DHT22;34136;51.022;7.082;2023-05-07T14:11:52;24.70;99.90
48328;DHT22;34136;51.022;7.082;2023-05-07T14:14:38;24.40;99.90
48328;DHT22;34136;51.022;7.082;2023-05-07T14:17:25;24.20;99.90
48328;DHT22;34136;51.022;7.082;2023-05-07T14:20:12;24.20;99.90
48328;DHT22;34136;51.022;7.082;2023-05-07T14:22:58;23.80;1.40
48328;DHT22;34136;51.022;7.082;2023-05-07T14:25:45;23.30;1.00
48328;DHT22;34136;51.022;7.082;2023-05-07T14:28:32;23.10;1.00
48328;DHT22;34136;51.022;7.082;2023-05-07T14:31:19;23.00;1.00
48328;DHT22;34136;51.022;7.082;2023-05-07T14:34:05;23.00;1.00
48328;DHT22;34136;51.022;7.082;2023-05-07T14:39:42;23.10;1.00
48328;DHT22;34136;51.022;7.082;2023-05-07T14:42:28;23.20;1.00
48328;DHT22;34136;51.022;7.082;2023-05-07T14:45:15;23.30;1.00
48328;DHT22;34136;51.022;7.082;2023-05-07T14:48:01;22.80;1.00
48328;DHT22;34136;51.022;7.082;2023-05-07T14:50:48;22.50;1.00
48328;DHT22;34136;51.022;7.082;2023-05-07T14:53:34;22.10;1.00
48328;DHT22;34136;51.022;7.082;2023-05-07T14:56:20;22.10;1.00
48328;DHT22;34136;51.022;7.082;2023-05-07T14:59:07;21.90;1.00
48328;DHT22;34136;51.022;7.082;2023-05-07T15:01:54;21.90;1.00
48328;DHT22;34136;51.022;7.082;2023-05-07T15:04:40;21.70;1.00
48328;DHT22;34136;51.022;7.082;2023-05-07T15:07:27;21.40;1.00
48328;DHT22;34136;51.022;7.082;2023-05-07T15:10:15;21.40;1.00
48328;DHT22;34136;51.022;7.082;2023-05-07T15:13:02;21.20;1.00
48328;DHT22;34136;51.022;7.082;2023-05-07T15:15:48;21.00;1.00
48328;DHT22;34136;51.022;7.082;2023-05-07T15:18:35;20.50;1.00
48328;DHT22;34136;51.022;7.082;2023-05-07T15:21:21;20.30;1.00
48328;DHT22;34136;51.022;7.082;2023-05-07T15:24:07;20.30;1.00
48328;DHT22;34136;51.022;7.082;2023-05-07T15:26:53;20.10;1.00
48328;DHT22;34136;51.022;7.082;2023-05-07T15:29:40;20.00;1.00
48328;DHT22;34136;51.022;7.082;2023-05-07T15:32:26;20.10;1.00
48328;DHT22;34136;51.022;7.082;2023-05-07T15:35:12;20.10;1.00
48328;DHT22;34136;51.022;7.082;2023-05-07T15:37:59;19.90;1.00
48328;DHT22;34136;51.022;7.082;2023-05-07T15:40:45;20.10;1.00
48328;DHT22;34136;51.022;7.082;2023-05-07T15:43:32;20.00;1.00
48328;DHT22;34136;51.022;7.082;2023-05-07T15:46:22;20.20;1.00
48328;DHT22;34136;51.022;7.082;2023-05-07T15:49:08;20.30;1.00
48328;DHT22;34136;51.022;7.082;2023-05-07T15:51:55;20.20;1.00
48328;DHT22;34136;51.022;7.082;2023-05-07T15:54:41;20.40;1.00
48328;DHT22;34136;51.022;7.082;2023-05-07T15:57:27;20.30;1.00
48328;DHT22;34136;51.022;7.082;2023-05-07T16:00:13;20.20;1.00
48328;DHT22;34136;51.022;7.082;2023-05-07T16:03:00;20.00;1.00
48328;DHT22;34136;51.022;7.082;2023-05-07T16:05:46;20.10;1.00
48328;DHT22;34136;51.022;7.082;2023-05-07T16:08:32;20.10;1.00
48328;DHT22;34136;51.022;7.082;2023-05-07T16:11:18;20.00;1.00
48328;DHT22;34136;51.022;7.082;2023-05-07T16:14:04;20.00;1.00
48328;DHT22;34136;51.022;7.082;2023-05-07T16:16:51;20.10;1.00
48328;DHT22;34136;51.022;7.082;2023-05-07T16:19:37;20.10;1.00
48328;DHT22;34136;51.022;7.082;2023-05-07T16:22:24;20.10;1.00
48328;DHT22;34136;51.022;7.082;2023-05-07T16:25:11;20.20;1.00
48328;DHT22;34136;51.022;7.082;2023-05-07T16:27:58;20.00;1.00
48328;DHT22;34136;51.022;7.082;2023-05-07T16:30:45;20.00;1.00
48328;DHT22;34136;51.022;7.082;2023-05-07T16:33:32;20.10;1.00
48328;DHT22;34136;51.022;7.082;2023-05-07T16:36:18;20.30;1.00
48328;DHT22;34136;51.022;7.082;2023-05-07T16:39:05;20.20;1.00
48328;DHT22;34136;51.022;7.082;2023-05-07T16:41:52;20.30;1.00
48328;DHT22;34136;51.022;7.082;2023-05-07T16:44:38;20.30;1.00
48328;DHT22;34136;51.022;7.082;2023-05-07T16:47:24;20.20;1.00
48328;DHT22;34136;51.022;7.082;2023-05-07T16:50:10;20.10;1.00
48328;DHT22;34136;51.022;7.082;2023-05-07T16:52:56;20.20;1.00
48328;DHT22;34136;51.022;7.082;2023-05-07T16:55:42;20.30;1.00
48328;DHT22;34136;51.022;7.082;2023-05-07T16:58:28;20.50;1.00
48328;DHT22;34136;51.022;7.082;2023-05-07T17:01:14;20.50;1.00
48328;DHT22;34136;51.022;7.082;2023-05-07T17:04:00;20.50;1.00
48328;DHT22;34136;51.022;7.082;2023-05-07T17:06:46;20.50;1.00
48328;DHT22;34136;51.022;7.082;2023-05-07T17:09:33;20.30;1.00
48328;DHT22;34136;51.022;7.082;2023-05-07T17:12:19;20.40;1.00
48328;DHT22;34136;51.022;7.082;2023-05-07T17:15:06;20.50;1.00
48328;DHT22;34136;51.022;7.082;2023-05-07T17:17:52;20.60;1.00
48328;DHT22;34136;51.022;7.082;2023-05-07T17:20:38;20.70;1.00
48328;DHT22;34136;51.022;7.082;2023-05-07T17:23:24;20.50;1.00
48328;DHT22;34136;51.022;7.082;2023-05-07T17:26:14;20.40;1.00
48328;DHT22;34136;51.022;7.082;2023-05-07T17:29:01;20.30;1.00
48328;DHT22;34136;51.022;7.082;2023-05-07T17:31:47;20.30;1.00
48328;DHT22;34136;51.022;7.082;2023-05-07T17:34:34;20.40;1.00
48328;DHT22;34136;51.022;7.082;2023-05-07T17:37:20;20.50;1.00
48328;DHT22;34136;51.022;7.082;2023-05-07T17:40:06;20.40;1.00
48328;DHT22;34136;51.022;7.082;2023-05-07T17:42:52;20.30;1.00
48328;DHT22;34136;51.022;7.082;2023-05-07T17:45:39;20.10;1.00
48328;DHT22;34136;51.022;7.082;2023-05-07T17:48:25;20.20;1.00
48328;DHT22;34136;51.022;7.082;2023-05-07T17:51:11;20.30;1.00
48328;DHT22;34136;51.022;7.082;2023-05-07T17:53:57;20.30;1.00
48328;DHT22;34136;51.022;7.082;2023-05-07T17:56:44;20.20;1.00
48328;DHT22;34136;51.022;7.082;2023-05-07T17:59:30;20.20;1.00
48328;DHT22;34136;51.022;7.082;2023-05-07T18:02:16;20.20;1.00
48328;DHT22;34136;51.022;7.082;2023-05-07T18:05:02;20.20;1.00